createdAt,value
2018-08-13T00:00:39.351Z,100338.38
2018-08-13T00:03:06.411Z,100335.66
2018-08-13T00:05:33.455Z,100332.00
2018-08-13T00:08:00.480Z,100329.05
2018-08-13T00:10:27.610Z,100333.37
2018-08-13T00:12:54.700Z,100327.63
2018-08-13T00:15:21.807Z,100330.03
2018-08-13T00:17:48.899Z,100327.22
2018-08-13T00:20:16.404Z,100321.89
2018-08-13T00:22:43.471Z,100317.05
2018-08-13T00:25:10.523Z,100314.87
2018-08-13T00:27:37.550Z,100314.02
2018-08-13T00:30:04.791Z,100311.77
2018-08-13T00:32:31.832Z,100303.84
2018-08-13T00:34:58.868Z,100303.50
2018-08-13T00:37:25.859Z,100309.62
2018-08-13T00:39:52.871Z,100300.67
2018-08-13T00:42:19.971Z,100299.34
2018-08-13T00:44:47.069Z,100296.11
2018-08-13T00:47:14.116Z,100287.47
2018-08-13T00:49:41.139Z,100287.95
2018-08-13T00:52:08.310Z,100283.09
2018-08-13T00:54:35.311Z,100280.09
2018-08-13T00:57:02.317Z,100283.34
2018-08-13T00:59:29.378Z,100277.01
2018-08-13T01:01:56.423Z,100275.73
2018-08-13T01:04:23.499Z,100274.75
2018-08-13T01:06:50.572Z,100270.13
2018-08-13T01:09:17.563Z,100272.41
2018-08-13T01:11:44.547Z,100276.16
2018-08-13T01:14:11.586Z,100266.14
2018-08-13T01:16:38.630Z,100263.76
2018-08-13T01:19:05.712Z,100263.02
2018-08-13T01:21:32.748Z,100256.40
2018-08-13T01:23:59.855Z,100254.98
2018-08-13T01:26:26.897Z,100251.34
2018-08-13T01:28:53.915Z,100239.69
2018-08-13T01:31:20.954Z,100244.72
2018-08-13T01:33:48.059Z,100237.07
2018-08-13T01:36:15.097Z,100236.39
2018-08-13T01:38:42.179Z,100235.82
2018-08-13T01:41:09.214Z,100234.31
2018-08-13T01:43:36.278Z,100230.27
2018-08-13T01:46:03.336Z,100222.27
2018-08-13T01:48:30.379Z,100225.98
2018-08-13T01:50:57.419Z,100224.07
2018-08-13T01:53:24.477Z,100222.72
2018-08-13T01:55:51.515Z,100225.00
2018-08-13T01:58:18.529Z,100216.52
2018-08-13T02:00:45.520Z,100212.62
2018-08-13T02:03:12.512Z,100216.79
2018-08-13T02:05:39.507Z,100218.19
2018-08-13T02:08:06.636Z,100220.83
2018-08-13T02:10:33.790Z,100215.57
2018-08-13T02:13:00.842Z,100215.10
2018-08-13T02:15:27.989Z,100212.03
2018-08-13T02:17:55.012Z,100212.12
2018-08-13T02:20:22.058Z,100208.23
2018-08-13T02:22:49.020Z,100210.09
2018-08-13T02:25:16.051Z,100206.37
2018-08-13T02:27:43.045Z,100202.33
2018-08-13T02:30:11.084Z,100196.78
2018-08-13T02:32:42.058Z,100197.86
2018-08-13T02:35:12.073Z,100197.64
2018-08-13T02:37:39.638Z,100198.30
2018-08-13T02:40:07.989Z,100200.18
2018-08-13T02:42:35.143Z,100190.80
2018-08-13T02:45:02.393Z,100188.92
2018-08-13T02:47:29.402Z,100186.03
2018-08-13T02:49:56.420Z,100178.77
2018-08-13T02:52:23.463Z,100173.87
2018-08-13T02:54:50.557Z,100167.00
2018-08-13T02:57:17.564Z,100164.39
2018-08-13T02:59:45.255Z,100158.63
2018-08-13T03:02:12.327Z,100167.08
2018-08-13T03:04:39.398Z,100163.34
2018-08-13T03:07:06.342Z,100165.81
2018-08-13T03:09:33.375Z,100166.00
2018-08-13T03:12:00.381Z,100163.63
2018-08-13T03:14:27.391Z,100152.00
2018-08-13T03:16:54.443Z,100156.05
2018-08-13T03:19:21.455Z,100160.83
2018-08-13T03:21:48.445Z,100161.63
2018-08-13T03:24:15.507Z,100158.91
2018-08-13T03:26:42.567Z,100160.55
2018-08-13T03:29:09.582Z,100154.27
2018-08-13T03:31:36.588Z,100147.66
2018-08-13T03:34:03.591Z,100153.50
2018-08-13T03:36:30.655Z,100161.36
2018-08-13T03:38:57.752Z,100159.89
2018-08-13T03:41:24.745Z,100162.14
2018-08-13T03:43:51.771Z,100158.08
2018-08-13T03:46:18.867Z,100156.08
2018-08-13T03:48:45.915Z,100150.95
2018-08-13T03:51:12.971Z,100156.60
2018-08-13T03:53:40.129Z,100149.19
2018-08-13T03:56:07.370Z,100148.61
2018-08-13T03:58:34.358Z,100152.26
2018-08-13T04:01:02.399Z,100145.73
2018-08-13T04:03:29.964Z,100147.18
2018-08-13T04:05:57.050Z,100142.05
2018-08-13T04:08:24.339Z,100137.20
2018-08-13T04:10:51.358Z,100140.45
2018-08-13T04:13:18.380Z,100130.28
2018-08-13T04:15:45.481Z,100129.78
2018-08-13T04:18:13.427Z,100125.98
2018-08-13T04:20:40.513Z,100121.39
2018-08-13T04:23:07.524Z,100126.96
2018-08-13T04:25:34.564Z,100122.36
2018-08-13T04:28:01.576Z,100123.09
2018-08-13T04:30:28.636Z,100117.24
2018-08-13T04:32:55.655Z,100120.83
2018-08-13T04:35:22.675Z,100118.17
2018-08-13T04:37:49.668Z,100125.20
2018-08-13T04:40:17.771Z,100122.66
2018-08-13T04:42:45.789Z,100120.50
2018-08-13T04:45:12.835Z,100120.43
2018-08-13T04:47:44.131Z,100114.11
2018-08-13T04:50:11.127Z,100117.28
2018-08-13T04:52:38.215Z,100116.34
2018-08-13T04:55:06.509Z,100109.28
2018-08-13T04:57:33.493Z,100113.81
2018-08-13T05:00:00.509Z,100108.87
2018-08-13T05:02:27.510Z,100103.83
2018-08-13T05:04:54.819Z,100106.13
2018-08-13T05:07:21.865Z,100102.41
2018-08-13T05:09:48.851Z,100097.58
2018-08-13T05:12:15.912Z,100097.70
2018-08-13T05:14:42.951Z,100101.03
2018-08-13T05:17:09.968Z,100100.47
2018-08-13T05:19:37.064Z,100096.92
2018-08-13T05:22:04.176Z,100097.82
2018-08-13T05:24:31.403Z,100095.32
2018-08-13T05:26:58.518Z,100095.38
2018-08-13T05:29:25.662Z,100093.52
2018-08-13T05:31:52.665Z,100094.10
2018-08-13T05:34:19.724Z,100094.59
2018-08-13T05:36:46.805Z,100103.59
2018-08-13T05:39:13.801Z,100105.09
2018-08-13T05:41:40.959Z,100092.25
2018-08-13T05:44:08.113Z,100093.70
2018-08-13T05:46:35.362Z,100092.06
2018-08-13T05:49:02.409Z,100091.49
2018-08-13T05:51:29.446Z,100087.89
2018-08-13T05:53:56.504Z,100091.16
2018-08-13T05:56:23.609Z,100088.81
2018-08-13T05:58:50.647Z,100091.95
2018-08-13T06:01:17.676Z,100092.98
2018-08-13T06:03:44.751Z,100102.61
2018-08-13T06:06:11.768Z,100102.81
2018-08-13T06:08:38.867Z,100108.59
2018-08-13T06:11:06.254Z,100099.66
2018-08-13T06:13:33.308Z,100101.46
2018-08-13T06:16:00.335Z,100104.28
2018-08-13T06:18:27.336Z,100106.04
2018-08-13T06:20:54.442Z,100101.96
2018-08-13T06:23:21.471Z,100101.20
2018-08-13T06:25:48.603Z,100100.94
2018-08-13T06:28:15.794Z,100107.23
2018-08-13T06:30:42.718Z,100104.46
2018-08-13T06:33:09.719Z,100101.36
2018-08-13T06:35:36.753Z,100103.23
2018-08-13T06:38:03.945Z,100098.10
2018-08-13T06:40:31.135Z,100090.94
2018-08-13T06:42:58.211Z,100083.52
2018-08-13T06:45:25.302Z,100089.52
2018-08-13T06:47:52.379Z,100084.48
2018-08-13T06:50:19.406Z,100086.23
2018-08-13T06:52:46.403Z,100087.52
2018-08-13T06:55:13.411Z,100094.53
2018-08-13T06:57:40.595Z,100095.95
2018-08-13T07:00:10.947Z,100101.77
2018-08-13T07:02:37.970Z,100094.78
2018-08-13T07:05:06.585Z,100086.41
2018-08-13T07:07:33.683Z,100083.24
2018-08-13T07:10:00.678Z,100075.55
2018-08-13T07:12:27.745Z,100071.52
2018-08-13T07:14:54.907Z,100074.11
2018-08-13T07:17:21.884Z,100066.05
2018-08-13T07:19:49.139Z,100068.53
2018-08-13T07:22:16.149Z,100067.48
2018-08-13T07:24:43.139Z,100070.59
2018-08-13T07:27:10.237Z,100073.71
2018-08-13T07:29:37.400Z,100080.56
2018-08-13T07:32:04.370Z,100087.30
2018-08-13T07:34:31.476Z,100090.27
2018-08-13T07:36:58.462Z,100088.44
2018-08-13T07:39:25.508Z,100088.00
2018-08-13T07:41:52.564Z,100082.45
2018-08-13T07:44:19.581Z,100074.00
2018-08-13T07:46:46.668Z,100081.50
2018-08-13T07:49:13.797Z,100076.49
2018-08-13T07:51:40.859Z,100068.13
2018-08-13T07:54:07.815Z,100075.02
2018-08-13T07:56:34.920Z,100079.47
2018-08-13T07:59:05.988Z,100080.02
2018-08-13T08:01:33.271Z,100076.84
2018-08-13T08:04:12.523Z,100084.77
2018-08-13T08:06:39.775Z,100084.93
2018-08-13T08:09:08.888Z,100072.20
2018-08-13T08:11:35.950Z,100069.38
2018-08-13T08:14:04.058Z,100079.02
2018-08-13T08:16:31.139Z,100071.73
2018-08-13T08:18:58.239Z,100064.92
2018-08-13T08:21:25.394Z,100061.22
2018-08-13T08:23:52.344Z,100063.38
2018-08-13T08:26:19.375Z,100059.14
2018-08-13T08:28:46.431Z,100062.58
2018-08-13T08:31:13.511Z,100060.45
2018-08-13T08:33:40.514Z,100055.88
2018-08-13T08:36:07.521Z,100048.70
2018-08-13T08:38:34.763Z,100046.64
2018-08-13T08:41:01.775Z,100045.84
2018-08-13T08:43:28.939Z,100044.19
2018-08-13T08:45:55.979Z,100046.77
2018-08-13T08:48:23.069Z,100051.94
2018-08-13T08:50:50.119Z,100049.05
2018-08-13T08:53:17.166Z,100053.00
2018-08-13T08:55:44.176Z,100050.47
2018-08-13T08:58:11.165Z,100053.05
2018-08-13T09:00:38.230Z,100052.20
2018-08-13T09:03:05.228Z,100046.67
2018-08-13T09:05:32.251Z,100047.58
2018-08-13T09:07:59.270Z,100048.03
2018-08-13T09:10:26.280Z,100046.34
2018-08-13T09:12:53.299Z,100043.34
2018-08-13T09:15:20.306Z,100044.63
2018-08-13T09:17:59.288Z,100045.03
2018-08-13T09:20:37.792Z,100047.19
2018-08-13T09:23:16.411Z,100045.05
2018-08-13T09:25:55.092Z,100049.30
2018-08-13T09:28:33.756Z,100046.31
2018-08-13T09:32:16.161Z,100040.33
2018-08-13T09:34:49.592Z,100042.84
2018-08-13T09:37:17.599Z,100039.35
2018-08-13T09:39:44.928Z,100036.77
2018-08-13T09:42:12.076Z,100024.29
2018-08-13T09:44:39.207Z,100019.09
2018-08-13T09:47:06.211Z,100019.05
2018-08-13T09:49:34.177Z,100010.34
2018-08-13T09:52:01.268Z,100009.80
2018-08-13T09:54:28.335Z,100014.03
2018-08-13T09:56:55.439Z,100009.63
2018-08-13T09:59:22.796Z,100009.98
2018-08-13T10:01:49.815Z,100003.59
2018-08-13T10:04:16.823Z,100002.31
2018-08-13T10:06:43.858Z,100002.04
2018-08-13T10:09:10.932Z,99998.47
2018-08-13T10:11:38.181Z,99992.36
2018-08-13T10:14:05.209Z,99988.50
2018-08-13T10:16:32.277Z,99988.41
2018-08-13T10:18:59.292Z,99987.25
2018-08-13T10:21:26.351Z,99987.11
2018-08-13T10:23:53.663Z,99981.08
2018-08-13T10:26:20.768Z,99982.81
2018-08-13T10:28:47.834Z,99983.05
2018-08-13T10:31:14.922Z,99979.44
2018-08-13T10:33:42.016Z,99981.77
2018-08-13T10:36:09.381Z,99978.79
2018-08-13T10:38:36.966Z,99977.22
2018-08-13T10:41:04.168Z,99968.80
2018-08-13T10:43:31.821Z,99971.14
2018-08-13T10:45:59.161Z,99963.08
2018-08-13T10:48:26.772Z,99966.80
2018-08-13T10:50:54.080Z,99967.99
2018-08-13T10:53:21.190Z,99968.38
2018-08-13T10:55:48.400Z,99964.70
2018-08-13T10:58:15.420Z,99962.05
2018-08-13T11:00:42.631Z,99957.78
2018-08-13T11:03:12.441Z,99949.16
2018-08-13T11:05:39.780Z,99952.59
2018-08-13T11:08:07.151Z,99947.67
2018-08-13T11:10:34.276Z,99948.94
2018-08-13T11:13:01.344Z,99940.36
2018-08-13T11:15:28.719Z,99938.33
2018-08-13T11:17:55.768Z,99938.73
2018-08-13T11:20:23.048Z,99938.84
2018-08-13T11:22:50.226Z,99935.77
2018-08-13T11:25:17.941Z,99947.08
2018-08-13T11:27:45.199Z,99944.98
2018-08-13T11:30:14.811Z,99936.87
2018-08-13T11:32:43.593Z,99939.64
2018-08-13T11:35:10.679Z,99935.17
2018-08-13T11:37:37.771Z,99942.52
2018-08-13T11:40:09.650Z,99932.27
2018-08-13T11:42:36.671Z,99928.89
2018-08-13T11:45:03.820Z,99928.48
2018-08-13T11:47:30.835Z,99932.51
2018-08-13T11:49:57.991Z,99934.19
2018-08-13T11:52:25.405Z,99929.94
2018-08-13T11:54:52.592Z,99934.73
2018-08-13T11:57:19.657Z,99935.48
2018-08-13T11:59:46.717Z,99932.52
2018-08-13T12:02:13.826Z,99935.67
2018-08-13T12:04:40.880Z,99937.83
2018-08-13T12:07:07.988Z,99927.63
2018-08-13T12:09:35.020Z,99930.78
2018-08-13T12:12:02.121Z,99935.09
2018-08-13T12:14:29.158Z,99932.17
2018-08-13T12:16:56.305Z,99938.25
2018-08-13T12:19:23.406Z,99946.91
2018-08-13T12:21:50.627Z,99934.17
2018-08-13T12:24:17.803Z,99937.27
2018-08-13T12:26:44.918Z,99937.41
2018-08-13T12:29:11.991Z,99936.72
2018-08-13T12:31:39.388Z,99934.31
2018-08-13T12:34:06.472Z,99938.74
2018-08-13T12:36:33.580Z,99947.09
2018-08-13T12:39:00.998Z,99937.79
2018-08-13T12:41:28.028Z,99948.14
2018-08-13T12:43:55.076Z,99937.99
2018-08-13T12:46:22.103Z,99942.77
2018-08-13T12:48:49.188Z,99945.77
2018-08-13T12:51:16.224Z,99943.70
2018-08-13T12:53:43.340Z,99944.67
2018-08-13T12:56:10.462Z,99945.12
2018-08-13T12:58:37.513Z,99947.34
2018-08-13T13:01:10.520Z,99954.29
2018-08-13T13:03:37.963Z,99958.22
2018-08-13T13:06:05.047Z,99954.06
2018-08-13T13:08:32.153Z,99953.27
2018-08-13T13:10:59.147Z,99951.62
2018-08-13T13:13:26.563Z,99957.69
2018-08-13T13:15:53.544Z,99960.32
2018-08-13T13:18:20.544Z,99960.83
2018-08-13T13:20:47.564Z,99960.00
2018-08-13T13:23:14.627Z,99962.64
2018-08-13T13:25:41.704Z,99963.95
2018-08-13T13:28:08.861Z,99964.00
2018-08-13T13:30:35.868Z,99958.06
2018-08-13T13:33:02.920Z,99962.76
2018-08-13T13:35:29.960Z,99957.20
2018-08-13T13:37:56.979Z,99951.69
2018-08-13T13:40:24.018Z,99949.09
2018-08-13T13:42:51.642Z,99944.42
2018-08-13T13:45:20.366Z,99941.40
2018-08-13T13:47:48.260Z,99934.18
2018-08-13T13:50:17.430Z,99944.85
2018-08-13T13:52:46.318Z,99943.59
2018-08-13T13:55:14.641Z,99949.56
2018-08-13T13:57:42.664Z,99938.02
2018-08-13T14:00:15.214Z,99938.86
2018-08-13T14:02:43.239Z,99928.98
2018-08-13T14:05:10.992Z,99935.41
2018-08-13T14:07:38.529Z,99934.58
2018-08-13T14:10:07.201Z,99939.73
2018-08-13T14:12:34.271Z,99938.85
2018-08-13T14:15:01.383Z,99943.57
2018-08-13T14:17:28.468Z,99936.30
2018-08-13T14:19:55.651Z,99935.89
2018-08-13T14:22:22.777Z,99932.47
2018-08-13T14:24:49.763Z,99939.77
2018-08-13T14:27:16.800Z,99938.08
2018-08-13T14:29:43.798Z,99938.99
2018-08-13T14:32:10.833Z,99943.34
2018-08-13T14:34:37.958Z,99943.35
2018-08-13T14:37:05.000Z,99944.23
2018-08-13T14:39:32.056Z,99949.39
2018-08-13T14:41:59.080Z,99949.44
2018-08-13T14:44:26.164Z,99946.04
2018-08-13T14:46:53.170Z,99946.48
2018-08-13T14:49:20.264Z,99944.77
2018-08-13T14:51:47.272Z,99940.91
2018-08-13T14:54:14.303Z,99943.00
2018-08-13T14:56:41.639Z,99938.33
2018-08-13T14:59:08.732Z,99937.88
2018-08-13T15:01:36.527Z,99938.27
2018-08-13T15:04:04.328Z,99941.25
2018-08-13T15:06:31.360Z,99935.72
2018-08-13T15:08:58.559Z,99919.95
2018-08-13T15:11:30.168Z,99917.41
2018-08-13T15:13:57.153Z,99914.88
2018-08-13T15:16:24.188Z,99912.75
2018-08-13T15:18:51.236Z,99907.22
2018-08-13T15:21:19.337Z,99908.08
2018-08-13T15:23:47.083Z,99906.77
2018-08-13T15:26:14.111Z,99901.69
2018-08-13T15:28:41.103Z,99900.39
2018-08-13T15:31:08.099Z,99895.27
2018-08-13T15:33:35.263Z,99899.55
2018-08-13T15:36:02.320Z,99897.41
2018-08-13T15:38:29.352Z,99888.88
2018-08-13T15:40:56.336Z,99888.02
2018-08-13T15:43:24.379Z,99882.51
2018-08-13T15:45:51.482Z,99881.64
2018-08-13T15:48:18.476Z,99871.41
2018-08-13T15:50:55.570Z,99871.40
2018-08-13T15:53:59.215Z,99870.55
2018-08-13T15:56:46.666Z,99874.41
2018-08-13T15:59:36.181Z,99868.02
2018-08-13T16:02:23.582Z,99860.75
2018-08-13T16:05:14.345Z,99862.86
2018-08-13T16:08:14.167Z,99858.15
2018-08-13T16:11:03.422Z,99862.84
2018-08-13T16:13:31.040Z,99855.60
2018-08-13T16:15:58.264Z,99861.55
2018-08-13T16:18:25.519Z,99865.41
2018-08-13T16:20:52.537Z,99856.00
2018-08-13T16:23:19.564Z,99855.13
2018-08-13T16:25:46.613Z,99857.70
2018-08-13T16:28:13.959Z,99856.86
2018-08-13T16:30:41.033Z,99857.28
2018-08-13T16:33:08.256Z,99863.28
2018-08-13T16:35:35.374Z,99854.34
2018-08-13T16:38:02.379Z,99850.94
2018-08-13T16:40:29.658Z,99853.94
2018-08-13T16:42:56.906Z,99846.66
2018-08-13T16:45:23.913Z,99854.36
2018-08-13T16:47:51.167Z,99839.82
2018-08-13T16:50:23.218Z,99845.80
2018-08-13T16:52:50.521Z,99843.27
2018-08-13T16:55:23.539Z,99847.11
2018-08-13T16:57:51.241Z,99842.85
2018-08-13T17:00:22.211Z,99838.58
2018-08-13T17:02:49.252Z,99825.36
2018-08-13T17:05:16.707Z,99830.91
2018-08-13T17:07:43.868Z,99828.36
2018-08-13T17:10:16.187Z,99824.95
2018-08-13T17:12:43.236Z,99831.75
2018-08-13T17:15:10.792Z,99825.34
2018-08-13T17:17:38.621Z,99827.08
2018-08-13T17:20:07.508Z,99828.77
2018-08-13T17:22:34.544Z,99827.89
2018-08-13T17:25:01.655Z,99819.83
2018-08-13T17:27:28.599Z,99818.55
2018-08-13T17:29:55.888Z,99825.35
2018-08-13T17:32:22.965Z,99827.83
2018-08-13T17:34:50.029Z,99828.28
2018-08-13T17:37:17.041Z,99822.71
2018-08-13T17:39:44.529Z,99832.03
2018-08-13T17:42:11.753Z,99833.30
2018-08-13T17:44:38.779Z,99835.77
2018-08-13T17:47:05.828Z,99839.06
2018-08-13T17:49:32.927Z,99844.50
2018-08-13T17:52:00.371Z,99847.38
2018-08-13T17:54:27.397Z,99852.81
2018-08-13T17:56:54.395Z,99854.02
2018-08-13T17:59:21.393Z,99861.07
2018-08-13T18:01:48.466Z,99865.68
2018-08-13T18:04:15.525Z,99870.32
2018-08-13T18:06:42.747Z,99876.95
2018-08-13T18:09:10.930Z,99888.20
2018-08-13T18:11:38.811Z,99888.05
2018-08-13T18:14:06.309Z,99878.25
2018-08-13T18:16:33.297Z,99881.48
2018-08-13T18:19:00.432Z,99895.90
2018-08-13T18:21:27.407Z,99896.98
2018-08-13T18:23:54.440Z,99895.20
2018-08-13T18:26:21.709Z,99899.44
2018-08-13T18:28:49.007Z,99917.77
2018-08-13T18:31:16.092Z,99889.79
2018-08-13T18:33:43.191Z,99882.91
2018-08-13T18:36:10.435Z,99894.25
2018-08-13T18:38:38.105Z,99892.60
2018-08-13T18:41:05.179Z,99891.77
2018-08-13T18:43:32.260Z,99888.78
2018-08-13T18:45:59.296Z,99891.59
2018-08-13T18:48:26.353Z,99904.03
2018-08-13T18:50:53.712Z,99899.64
2018-08-13T18:53:20.825Z,99895.36
2018-08-13T18:55:47.840Z,99884.49
2018-08-13T18:58:15.157Z,99887.05
2018-08-13T19:00:44.750Z,99900.85
2018-08-13T19:03:11.983Z,99896.14
2018-08-13T19:05:39.014Z,99895.28
2018-08-13T19:08:06.070Z,99904.18
2018-08-13T19:10:33.441Z,99897.94
2018-08-13T19:13:00.529Z,99900.55
2018-08-13T19:15:28.127Z,99899.95
2018-08-13T19:17:55.392Z,99907.09
2018-08-13T19:20:22.739Z,99904.41
2018-08-13T19:22:49.819Z,99914.52
2018-08-13T19:25:19.744Z,99908.58
2018-08-13T19:27:46.849Z,99900.05
2018-08-13T19:30:15.312Z,99896.24
2018-08-13T19:32:43.299Z,99894.05
2018-08-13T19:35:10.805Z,99899.86
2018-08-13T19:37:38.245Z,99904.47
2018-08-13T19:40:08.450Z,99902.30
2018-08-13T19:42:35.526Z,99896.36
2018-08-13T19:45:02.992Z,99904.65
2018-08-13T19:47:30.097Z,99901.19
2018-08-13T19:49:57.244Z,99896.16
2018-08-13T19:52:24.278Z,99894.79
2018-08-13T19:54:51.309Z,99897.75
2018-08-13T19:57:18.645Z,99899.39
2018-08-13T19:59:45.674Z,99904.75
2018-08-13T20:02:12.733Z,99909.33
2018-08-13T20:04:39.753Z,99904.88
2018-08-13T20:07:06.812Z,99908.58
2018-08-13T20:09:33.845Z,99909.78
2018-08-13T20:12:00.903Z,99912.72
2018-08-13T20:14:28.018Z,99916.47
2018-08-13T20:16:55.082Z,99914.28
2018-08-13T20:19:22.109Z,99922.24
2018-08-13T20:21:49.793Z,99922.93
2018-08-13T20:24:16.840Z,99924.11
2018-08-13T20:26:43.875Z,99918.53
2018-08-13T20:29:11.592Z,99929.38
2018-08-13T20:31:45.467Z,99930.16
2018-08-13T20:34:12.999Z,99926.00
2018-08-13T20:36:40.024Z,99925.50
2018-08-13T20:39:12.025Z,99928.38
2018-08-13T20:41:39.501Z,99931.68
2018-08-13T20:44:06.692Z,99924.34
2018-08-13T20:46:34.196Z,99928.52
2018-08-13T20:49:01.228Z,99930.54
2018-08-13T20:51:28.285Z,99926.15
2018-08-13T20:53:55.339Z,99928.76
2018-08-13T20:56:22.347Z,99930.03
2018-08-13T20:58:49.405Z,99918.48
2018-08-13T21:01:16.483Z,99924.37
2018-08-13T21:03:43.577Z,99924.30
2018-08-13T21:06:10.572Z,99927.59
2018-08-13T21:08:37.675Z,99922.44
2018-08-13T21:11:04.782Z,99922.83
2018-08-13T21:13:32.142Z,99928.19
2018-08-13T21:15:59.251Z,99934.38
2018-08-13T21:18:26.227Z,99932.71
2018-08-13T21:20:53.316Z,99928.97
2018-08-13T21:23:20.307Z,99930.98
2018-08-13T21:25:47.552Z,99926.97
2018-08-13T21:28:14.902Z,99919.94
2018-08-13T21:30:42.319Z,99928.78
2018-08-13T21:33:09.511Z,99927.52
2018-08-13T21:35:36.597Z,99929.51
2018-08-13T21:38:03.657Z,99930.39
2018-08-13T21:40:30.831Z,99930.67
2018-08-13T21:42:57.931Z,99933.19
2018-08-13T21:45:25.072Z,99933.90
2018-08-13T21:47:52.111Z,99936.27
2018-08-13T21:50:20.534Z,99933.36
2018-08-13T21:52:48.486Z,99939.22
2018-08-13T21:55:15.630Z,99939.60
2018-08-13T21:57:42.760Z,99934.95
2018-08-13T22:00:21.238Z,99947.59
2018-08-13T22:02:48.602Z,99953.88
2018-08-13T22:05:15.794Z,99957.65
2018-08-13T22:07:42.936Z,99954.13
2018-08-13T22:10:10.037Z,99957.40
2018-08-13T22:12:37.719Z,99952.39
2018-08-13T22:15:22.502Z,99958.64
2018-08-13T22:17:49.730Z,99962.02
2018-08-13T22:20:17.146Z,99960.73
2018-08-13T22:22:44.328Z,99959.82
2018-08-13T22:25:16.396Z,99962.85
2018-08-13T22:27:43.523Z,99966.16
2018-08-13T22:30:10.864Z,99963.27
2018-08-13T22:32:37.920Z,99967.83
2018-08-13T22:35:06.032Z,99964.03
2018-08-13T22:37:33.467Z,99961.50
2018-08-13T22:40:00.468Z,99969.92
2018-08-13T22:42:27.483Z,99971.55
2018-08-13T22:44:54.527Z,99974.94
2018-08-13T22:47:21.591Z,99974.08
2018-08-13T22:49:48.629Z,99972.45
2018-08-13T22:52:15.754Z,99978.37
2018-08-13T22:54:42.707Z,99972.48
2018-08-13T22:57:09.756Z,99971.74
2018-08-13T22:59:36.852Z,99973.42
2018-08-13T23:02:03.890Z,99972.24
2018-08-13T23:04:31.009Z,99971.80
2018-08-13T23:06:58.314Z,99974.80
2018-08-13T23:09:25.344Z,99969.41
2018-08-13T23:11:52.384Z,99978.66
2018-08-13T23:14:19.555Z,99976.67
2018-08-13T23:16:46.900Z,99972.93
2018-08-13T23:19:13.893Z,99985.60
2018-08-13T23:21:40.880Z,99978.08
2018-08-13T23:24:07.874Z,99983.51
2018-08-13T23:26:34.947Z,99984.36
2018-08-13T23:29:02.018Z,99991.66
2018-08-13T23:31:29.039Z,99986.66
2018-08-13T23:33:56.082Z,99987.53
2018-08-13T23:36:23.155Z,99985.50
2018-08-13T23:38:50.244Z,99985.16
2018-08-13T23:41:17.291Z,99988.47
2018-08-13T23:43:44.455Z,99989.38
2018-08-13T23:46:11.510Z,99987.75
2018-08-13T23:48:38.614Z,99991.94
2018-08-13T23:51:05.815Z,99987.28
2018-08-13T23:53:32.948Z,99994.89
2018-08-13T23:55:59.976Z,99989.41
2018-08-13T23:58:27.050Z,99989.07
